ADDS METAR Data INFO
IDs: Format: Raw Decoded Include TAF

Data at: 1738 UTC 15 Dec 2017

KELP 151651Z VRB05KT 10SM CLR 06/M03 A3035 RMK AO2 SLP262 T00611033
KELP 151551Z 12004KT 10SM CLR 05/M03 A3035 RMK AO2 SLP261 T00501033
KELP 151451Z COR 00000KT 10SM CLR 03/M06 A3034 RMK AO2 SLP260 T00331056 51015
KELP 151351Z 00000KT 10SM CLR 01/M07 A3034 RMK AO2 SLP259 T00111067
KELP 151251Z 01004KT 10SM FEW210 01/M07 A3031 RMK AO2 SLP249 T00111067
KELP 151151Z 02003KT 10SM FEW210 02/M06 A3030 RMK AO2 SLP241 T00221061 10072 20022 51008
KELP 151051Z 02004KT 10SM FEW200 03/M07 A3029 RMK AO2 SLP234 T00281067
KELP 150951Z 35004KT 10SM FEW200 03/M06 A3028 RMK AO2 SLP227 T00331061
KELP 150851Z 06006KT 10SM FEW200 04/M06 A3027 RMK AO2 SLP221 T00441061 51012
KELP 150751Z 06007KT 10SM FEW190 06/M06 A3025 RMK AO2 SLP215 T00611061
KELP 150651Z 06008KT 10SM FEW120 07/M07 A3025 RMK AO2 SLP214 T00671067 401830022
KELP 150551Z 02006KT 10SM FEW140 06/M07 A3023 RMK AO2 SLP212 T00611067 10122 20061 51023
KELP 150451Z 06005KT 10SM FEW140 07/M07 A3021 RMK AO2 SLP206 T00721067
KELP 150351Z 07007KT 10SM FEW080 FEW180 08/M06 A3019 RMK AO2 SLP205 T00781061
KELP 150251Z 07006KT 10SM FEW090 FEW180 09/M07 A3015 RMK AO2 SLP195 T00891067 51036
KELP 150151Z 07008KT 10SM FEW090 SCT180 09/M07 A3012 RMK AO2 SLP180 T00941072
KELP 150051Z 07011KT 10SM FEW090 SCT180 11/M07 A3007 RMK AO2 SLP160 T01061067
KELP 142351Z 07013KT 10SM FEW090 FEW190 12/M06 A3004 RMK AO2 SLP144 T01221061 10183 20122 53015
KELP 142251Z 09013G18KT 10SM FEW090 15/M05 A3001 RMK AO2 SLP131 T01501050
KELP 142151Z 11009KT 10SM FEW120 FEW180 17/M02 A2999 RMK AO2 SLP123 T01671022
KELP 142051Z 01005KT 10SM FEW110 17/M02 A2999 RMK AO2 SLP120 T01721022 56019
KELP 141951Z 02004KT 10SM FEW110 16/M04 A3000 RMK AO2 SLP126 T01561039
KELP 141851Z 01008KT 10SM SCT110 14/M04 A3002 RMK AO2 SLP134 T01391044
KELP 141751Z 03008KT 10SM FEW100 12/M02 A3005 RMK AO2 SLP148 T01171022 10117 20022 51010
KELP 141651Z 02005KT 10SM FEW100 09/M04 A3004 RMK AO2 SLP146 T00891039
KELP 141551Z 36006KT 10SM FEW100 04/M07 A3002 RMK AO2 SLP146 T00441067
KELP 141451Z 01007KT 10SM FEW100 02/M05 A3001 RMK AO2 SLP143 T00221050 53014
KELP 141351Z 00000KT 10SM FEW100 03/M02 A2999 RMK AO2 SLP134 T00281017
KELP 141251Z 19009KT 10SM FEW100 06/01 A2997 RMK AO2 SLP122 T00610006
KELP 141151Z 18009KT 10SM CLR 06/00 A2997 RMK AO2 SLP116 T00610000 10078 20022 50001
KELP 141051Z 18008KT 10SM FEW250 04/00 A2997 RMK AO2 SLP118 T00440000
KELP 140951Z 00000KT 10SM FEW250 04/M02 A2998 RMK AO2 SLP120 T00391017
KELP 140851Z 15004KT 10SM CLR 06/M01 A2997 RMK AO2 SLP116 T00611006 56007
KELP 140751Z 00000KT 10SM CLR 06/M02 A2997 RMK AO2 SLP119 T00561022
KELP 140651Z 15007KT 10SM CLR 07/M01 A2998 RMK AO2 SLP125 T00671011 401720000
KELP 140551Z 18004KT 10SM CLR 07/M02 A2999 RMK AO2 SLP130 T00671017 10156 20067 56003